sensor_id;sensor_type;location;lat;lon;timestamp;P1;durP1;ratioP1;P2;durP2;ratioP2
44476;SDS011;30180;44.788;10.366;2023-01-15T00:02:05;6.75;;;4.82;;
44476;SDS011;30180;44.788;10.366;2023-01-15T00:04:34;6.25;;;4.22;;
44476;SDS011;30180;44.788;10.366;2023-01-15T00:07:04;7.43;;;4.38;;
44476;SDS011;30180;44.788;10.366;2023-01-15T00:09:33;7.47;;;4.88;;
44476;SDS011;30180;44.788;10.366;2023-01-15T00:12:01;6.65;;;4.35;;
44476;SDS011;30180;44.788;10.366;2023-01-15T00:14:30;7.13;;;4.65;;
44476;SDS011;30180;44.788;10.366;2023-01-15T00:16:59;6.63;;;4.70;;
44476;SDS011;30180;44.788;10.366;2023-01-15T00:19:27;7.05;;;4.43;;
44476;SDS011;30180;44.788;10.366;2023-01-15T00:21:55;7.13;;;4.63;;
44476;SDS011;30180;44.788;10.366;2023-01-15T00:24:25;7.40;;;4.57;;
44476;SDS011;30180;44.788;10.366;2023-01-15T00:27:11;6.43;;;4.22;;
44476;SDS011;30180;44.788;10.366;2023-01-15T00:29:57;7.97;;;4.60;;
44476;SDS011;30180;44.788;10.366;2023-01-15T00:32:27;5.93;;;4.32;;
44476;SDS011;30180;44.788;10.366;2023-01-15T00:34:56;6.53;;;4.13;;
44476;SDS011;30180;44.788;10.366;2023-01-15T00:37:25;6.35;;;4.70;;
44476;SDS011;30180;44.788;10.366;2023-01-15T00:39:55;7.75;;;4.80;;
44476;SDS011;30180;44.788;10.366;2023-01-15T00:42:24;6.28;;;4.35;;
44476;SDS011;30180;44.788;10.366;2023-01-15T00:44:53;7.47;;;4.75;;
44476;SDS011;30180;44.788;10.366;2023-01-15T00:47:21;6.10;;;4.20;;
44476;SDS011;30180;44.788;10.366;2023-01-15T00:49:50;6.68;;;4.50;;
44476;SDS011;30180;44.788;10.366;2023-01-15T00:52:18;8.63;;;4.43;;
44476;SDS011;30180;44.788;10.366;2023-01-15T00:54:47;6.90;;;4.32;;
44476;SDS011;30180;44.788;10.366;2023-01-15T00:57:16;7.22;;;4.57;;
44476;SDS011;30180;44.788;10.366;2023-01-15T00:59:45;6.72;;;4.47;;
44476;SDS011;30180;44.788;10.366;2023-01-15T01:02:13;6.57;;;4.10;;
44476;SDS011;30180;44.788;10.366;2023-01-15T01:04:41;5.82;;;4.03;;
44476;SDS011;30180;44.788;10.366;2023-01-15T01:07:10;6.78;;;4.35;;
44476;SDS011;30180;44.788;10.366;2023-01-15T01:09:38;5.93;;;4.03;;
44476;SDS011;30180;44.788;10.366;2023-01-15T01:12:18;6.75;;;4.72;;
44476;SDS011;30180;44.788;10.366;2023-01-15T01:14:47;8.90;;;4.83;;
44476;SDS011;30180;44.788;10.366;2023-01-15T01:17:15;7.25;;;4.68;;
44476;SDS011;30180;44.788;10.366;2023-01-15T01:19:43;6.82;;;4.68;;
44476;SDS011;30180;44.788;10.366;2023-01-15T01:22:12;7.88;;;4.40;;
44476;SDS011;30180;44.788;10.366;2023-01-15T01:24:40;6.78;;;4.50;;
44476;SDS011;30180;44.788;10.366;2023-01-15T01:27:08;6.82;;;4.43;;
44476;SDS011;30180;44.788;10.366;2023-01-15T01:29:38;5.93;;;4.07;;
44476;SDS011;30180;44.788;10.366;2023-01-15T01:32:06;7.13;;;4.57;;
44476;SDS011;30180;44.788;10.366;2023-01-15T01:34:34;5.80;;;3.92;;
44476;SDS011;30180;44.788;10.366;2023-01-15T01:37:03;6.28;;;4.30;;
44476;SDS011;30180;44.788;10.366;2023-01-15T01:39:31;6.82;;;4.93;;
44476;SDS011;30180;44.788;10.366;2023-01-15T01:41:59;6.63;;;4.65;;
44476;SDS011;30180;44.788;10.366;2023-01-15T01:47:27;5.82;;;4.28;;
44476;SDS011;30180;44.788;10.366;2023-01-15T01:49:57;6.82;;;4.30;;
44476;SDS011;30180;44.788;10.366;2023-01-15T01:54:58;6.65;;;4.63;;
44476;SDS011;30180;44.788;10.366;2023-01-15T01:57:28;6.05;;;4.15;;
44476;SDS011;30180;44.788;10.366;2023-01-15T01:59:58;7.45;;;4.60;;
44476;SDS011;30180;44.788;10.366;2023-01-15T02:02:30;6.95;;;4.22;;
44476;SDS011;30180;44.788;10.366;2023-01-15T02:04:59;6.30;;;4.20;;
44476;SDS011;30180;44.788;10.366;2023-01-15T02:07:28;7.25;;;4.72;;
44476;SDS011;30180;44.788;10.366;2023-01-15T02:09:58;8.15;;;4.50;;
44476;SDS011;30180;44.788;10.366;2023-01-15T02:12:29;6.13;;;4.20;;
44476;SDS011;30180;44.788;10.366;2023-01-15T02:15:04;8.30;;;4.85;;
44476;SDS011;30180;44.788;10.366;2023-01-15T02:17:40;6.90;;;4.57;;
44476;SDS011;30180;44.788;10.366;2023-01-15T02:20:19;7.32;;;4.68;;
44476;SDS011;30180;44.788;10.366;2023-01-15T02:23:04;6.82;;;4.38;;
44476;SDS011;30180;44.788;10.366;2023-01-15T02:25:48;6.50;;;4.53;;
44476;SDS011;30180;44.788;10.366;2023-01-15T02:28:25;7.35;;;4.22;;
44476;SDS011;30180;44.788;10.366;2023-01-15T02:30:57;7.78;;;4.80;;
44476;SDS011;30180;44.788;10.366;2023-01-15T02:33:32;5.60;;;3.90;;
44476;SDS011;30180;44.788;10.366;2023-01-15T02:36:03;5.95;;;4.45;;
44476;SDS011;30180;44.788;10.366;2023-01-15T02:38:37;6.35;;;4.22;;
44476;SDS011;30180;44.788;10.366;2023-01-15T02:41:08;5.97;;;3.95;;
44476;SDS011;30180;44.788;10.366;2023-01-15T02:43:43;6.88;;;4.40;;
44476;SDS011;30180;44.788;10.366;2023-01-15T02:46:15;6.00;;;4.22;;
44476;SDS011;30180;44.788;10.366;2023-01-15T02:51:17;5.95;;;3.97;;
44476;SDS011;30180;44.788;10.366;2023-01-15T02:53:50;7.15;;;4.70;;
44476;SDS011;30180;44.788;10.366;2023-01-15T02:56:24;6.63;;;4.30;;
44476;SDS011;30180;44.788;10.366;2023-01-15T02:58:58;6.85;;;4.00;;
44476;SDS011;30180;44.788;10.366;2023-01-15T03:01:33;7.10;;;4.55;;
44476;SDS011;30180;44.788;10.366;2023-01-15T03:04:09;6.88;;;4.60;;
44476;SDS011;30180;44.788;10.366;2023-01-15T03:06:42;6.63;;;4.47;;
44476;SDS011;30180;44.788;10.366;2023-01-15T03:09:12;7.45;;;5.00;;
44476;SDS011;30180;44.788;10.366;2023-01-15T03:11:43;6.13;;;4.18;;
44476;SDS011;30180;44.788;10.366;2023-01-15T03:14:18;7.85;;;4.53;;
44476;SDS011;30180;44.788;10.366;2023-01-15T03:16:51;8.35;;;4.82;;
44476;SDS011;30180;44.788;10.366;2023-01-15T03:19:21;6.22;;;4.28;;
44476;SDS011;30180;44.788;10.366;2023-01-15T03:21:54;7.25;;;4.38;;
44476;SDS011;30180;44.788;10.366;2023-01-15T03:24:26;6.70;;;4.43;;
44476;SDS011;30180;44.788;10.366;2023-01-15T03:26:59;7.13;;;4.78;;
44476;SDS011;30180;44.788;10.366;2023-01-15T03:29:30;6.75;;;4.30;;
44476;SDS011;30180;44.788;10.366;2023-01-15T03:32:01;6.15;;;4.35;;
44476;SDS011;30180;44.788;10.366;2023-01-15T03:34:30;6.57;;;4.85;;
44476;SDS011;30180;44.788;10.366;2023-01-15T03:37:04;7.28;;;4.90;;
44476;SDS011;30180;44.788;10.366;2023-01-15T03:39:32;6.57;;;4.75;;
44476;SDS011;30180;44.788;10.366;2023-01-15T03:42:05;7.50;;;4.57;;
44476;SDS011;30180;44.788;10.366;2023-01-15T03:44:44;6.78;;;4.60;;
44476;SDS011;30180;44.788;10.366;2023-01-15T03:47:24;6.50;;;4.18;;
44476;SDS011;30180;44.788;10.366;2023-01-15T03:50:02;6.10;;;4.43;;
44476;SDS011;30180;44.788;10.366;2023-01-15T03:52:36;6.45;;;4.28;;
44476;SDS011;30180;44.788;10.366;2023-01-15T03:55:10;6.43;;;4.63;;
44476;SDS011;30180;44.788;10.366;2023-01-15T03:57:42;7.72;;;4.45;;
44476;SDS011;30180;44.788;10.366;2023-01-15T04:00:18;6.13;;;4.07;;
44476;SDS011;30180;44.788;10.366;2023-01-15T04:02:50;6.68;;;4.80;;
44476;SDS011;30180;44.788;10.366;2023-01-15T04:05:20;6.78;;;4.57;;
44476;SDS011;30180;44.788;10.366;2023-01-15T04:07:49;7.32;;;4.68;;
44476;SDS011;30180;44.788;10.366;2023-01-15T04:10:19;6.60;;;4.80;;
44476;SDS011;30180;44.788;10.366;2023-01-15T04:12:47;6.30;;;4.40;;
44476;SDS011;30180;44.788;10.366;2023-01-15T04:15:16;6.13;;;4.28;;
44476;SDS011;30180;44.788;10.366;2023-01-15T04:17:45;7.07;;;4.50;;
44476;SDS011;30180;44.788;10.366;2023-01-15T04:20:14;6.70;;;4.60;;
44476;SDS011;30180;44.788;10.366;2023-01-15T04:22:42;6.45;;;4.43;;
44476;SDS011;30180;44.788;10.366;2023-01-15T04:25:10;6.63;;;4.45;;
44476;SDS011;30180;44.788;10.366;2023-01-15T04:27:39;6.70;;;4.47;;
44476;SDS011;30180;44.788;10.366;2023-01-15T04:30:08;5.93;;;4.30;;
44476;SDS011;30180;44.788;10.366;2023-01-15T04:32:38;7.85;;;4.90;;
44476;SDS011;30180;44.788;10.366;2023-01-15T04:35:07;6.35;;;4.70;;
44476;SDS011;30180;44.788;10.366;2023-01-15T04:37:35;6.28;;;4.32;;
44476;SDS011;30180;44.788;10.366;2023-01-15T04:40:04;7.25;;;4.63;;
44476;SDS011;30180;44.788;10.366;2023-01-15T04:42:33;6.70;;;4.72;;
44476;SDS011;30180;44.788;10.366;2023-01-15T04:45:19;6.57;;;4.70;;
44476;SDS011;30180;44.788;10.366;2023-01-15T04:47:49;7.05;;;4.90;;
44476;SDS011;30180;44.788;10.366;2023-01-15T04:50:17;5.97;;;4.05;;
44476;SDS011;30180;44.788;10.366;2023-01-15T04:52:45;7.05;;;4.55;;
44476;SDS011;30180;44.788;10.366;2023-01-15T04:55:13;6.45;;;4.88;;
44476;SDS011;30180;44.788;10.366;2023-01-15T04:57:42;7.03;;;4.35;;
44476;SDS011;30180;44.788;10.366;2023-01-15T05:00:10;7.32;;;4.60;;
44476;SDS011;30180;44.788;10.366;2023-01-15T05:02:39;6.68;;;4.47;;
44476;SDS011;30180;44.788;10.366;2023-01-15T05:05:09;6.10;;;4.40;;
44476;SDS011;30180;44.788;10.366;2023-01-15T05:07:37;6.65;;;4.32;;
44476;SDS011;30180;44.788;10.366;2023-01-15T05:10:06;6.88;;;4.57;;
44476;SDS011;30180;44.788;10.366;2023-01-15T05:12:35;6.32;;;4.30;;
44476;SDS011;30180;44.788;10.366;2023-01-15T05:15:04;6.43;;;4.35;;
44476;SDS011;30180;44.788;10.366;2023-01-15T05:17:38;5.65;;;4.15;;
44476;SDS011;30180;44.788;10.366;2023-01-15T05:20:07;6.45;;;4.38;;
44476;SDS011;30180;44.788;10.366;2023-01-15T05:22:38;5.97;;;4.30;;
44476;SDS011;30180;44.788;10.366;2023-01-15T05:25:06;7.25;;;4.50;;
44476;SDS011;30180;44.788;10.366;2023-01-15T05:27:35;6.63;;;4.35;;
44476;SDS011;30180;44.788;10.366;2023-01-15T05:30:03;6.95;;;4.57;;
44476;SDS011;30180;44.788;10.366;2023-01-15T05:32:32;6.35;;;4.45;;
44476;SDS011;30180;44.788;10.366;2023-01-15T05:35:01;6.75;;;4.32;;
44476;SDS011;30180;44.788;10.366;2023-01-15T05:37:30;5.57;;;4.15;;
44476;SDS011;30180;44.788;10.366;2023-01-15T05:39:59;6.10;;;4.10;;
44476;SDS011;30180;44.788;10.366;2023-01-15T05:42:27;5.97;;;4.40;;
44476;SDS011;30180;44.788;10.366;2023-01-15T05:44:55;6.32;;;4.47;;
44476;SDS011;30180;44.788;10.366;2023-01-15T05:47:23;6.20;;;4.28;;
44476;SDS011;30180;44.788;10.366;2023-01-15T05:49:52;5.32;;;4.07;;
44476;SDS011;30180;44.788;10.366;2023-01-15T05:52:20;5.90;;;4.20;;
44476;SDS011;30180;44.788;10.366;2023-01-15T05:54:50;7.25;;;4.70;;
44476;SDS011;30180;44.788;10.366;2023-01-15T05:57:18;6.53;;;4.40;;
44476;SDS011;30180;44.788;10.366;2023-01-15T05:59:46;6.50;;;4.93;;
44476;SDS011;30180;44.788;10.366;2023-01-15T06:02:15;6.40;;;4.40;;
44476;SDS011;30180;44.788;10.366;2023-01-15T06:04:44;6.90;;;4.40;;
44476;SDS011;30180;44.788;10.366;2023-01-15T06:07:12;6.15;;;4.32;;
44476;SDS011;30180;44.788;10.366;2023-01-15T06:09:42;5.80;;;4.17;;
44476;SDS011;30180;44.788;10.366;2023-01-15T06:12:12;6.82;;;4.90;;
44476;SDS011;30180;44.788;10.366;2023-01-15T06:14:40;7.75;;;4.30;;
44476;SDS011;30180;44.788;10.366;2023-01-15T06:17:08;6.32;;;4.20;;
44476;SDS011;30180;44.788;10.366;2023-01-15T06:19:37;5.35;;;4.10;;
44476;SDS011;30180;44.788;10.366;2023-01-15T06:22:05;6.75;;;4.45;;
44476;SDS011;30180;44.788;10.366;2023-01-15T06:24:36;5.93;;;4.15;;
44476;SDS011;30180;44.788;10.366;2023-01-15T06:27:04;6.05;;;4.32;;
44476;SDS011;30180;44.788;10.366;2023-01-15T06:29:34;7.32;;;4.40;;
44476;SDS011;30180;44.788;10.366;2023-01-15T06:32:03;5.80;;;4.07;;
44476;SDS011;30180;44.788;10.366;2023-01-15T06:34:31;6.68;;;4.57;;
44476;SDS011;30180;44.788;10.366;2023-01-15T06:36:59;5.90;;;4.40;;
44476;SDS011;30180;44.788;10.366;2023-01-15T06:39:28;6.28;;;4.35;;
44476;SDS011;30180;44.788;10.366;2023-01-15T06:41:56;7.30;;;5.03;;
44476;SDS011;30180;44.788;10.366;2023-01-15T06:44:43;6.10;;;4.10;;
44476;SDS011;30180;44.788;10.366;2023-01-15T06:47:29;6.47;;;4.43;;
44476;SDS011;30180;44.788;10.366;2023-01-15T06:50:07;6.05;;;4.43;;
44476;SDS011;30180;44.788;10.366;2023-01-15T06:52:37;6.28;;;4.22;;
44476;SDS011;30180;44.788;10.366;2023-01-15T06:55:05;7.13;;;4.53;;
44476;SDS011;30180;44.788;10.366;2023-01-15T06:57:36;6.22;;;4.45;;
44476;SDS011;30180;44.788;10.366;2023-01-15T07:00:10;7.05;;;4.40;;
44476;SDS011;30180;44.788;10.366;2023-01-15T07:02:39;7.50;;;4.30;;
44476;SDS011;30180;44.788;10.366;2023-01-15T07:05:08;6.32;;;4.05;;
44476;SDS011;30180;44.788;10.366;2023-01-15T07:07:36;5.88;;;4.40;;
44476;SDS011;30180;44.788;10.366;2023-01-15T07:10:05;5.80;;;4.22;;
44476;SDS011;30180;44.788;10.366;2023-01-15T07:12:34;8.43;;;4.45;;
44476;SDS011;30180;44.788;10.366;2023-01-15T07:15:02;6.88;;;4.50;;
44476;SDS011;30180;44.788;10.366;2023-01-15T07:17:32;6.13;;;4.35;;
44476;SDS011;30180;44.788;10.366;2023-01-15T07:20:00;6.00;;;4.20;;
44476;SDS011;30180;44.788;10.366;2023-01-15T07:22:29;6.68;;;4.57;;
44476;SDS011;30180;44.788;10.366;2023-01-15T07:24:58;6.70;;;4.38;;
44476;SDS011;30180;44.788;10.366;2023-01-15T07:27:26;5.55;;;3.80;;
44476;SDS011;30180;44.788;10.366;2023-01-15T07:29:55;5.97;;;4.30;;
44476;SDS011;30180;44.788;10.366;2023-01-15T07:32:23;6.57;;;4.90;;
44476;SDS011;30180;44.788;10.366;2023-01-15T07:34:53;6.40;;;4.40;;
44476;SDS011;30180;44.788;10.366;2023-01-15T07:37:21;6.15;;;4.50;;
44476;SDS011;30180;44.788;10.366;2023-01-15T07:39:49;6.88;;;4.65;;
44476;SDS011;30180;44.788;10.366;2023-01-15T07:42:18;6.07;;;4.32;;
44476;SDS011;30180;44.788;10.366;2023-01-15T07:45:03;6.63;;;4.15;;
44476;SDS011;30180;44.788;10.366;2023-01-15T07:47:46;5.97;;;4.35;;
44476;SDS011;30180;44.788;10.366;2023-01-15T07:50:33;7.10;;;4.38;;
44476;SDS011;30180;44.788;10.366;2023-01-15T07:53:01;6.50;;;4.32;;
44476;SDS011;30180;44.788;10.366;2023-01-15T07:55:30;6.20;;;4.45;;
44476;SDS011;30180;44.788;10.366;2023-01-15T07:57:59;6.55;;;4.47;;
44476;SDS011;30180;44.788;10.366;2023-01-15T08:00:29;6.78;;;4.35;;
44476;SDS011;30180;44.788;10.366;2023-01-15T08:02:57;6.75;;;4.40;;
44476;SDS011;30180;44.788;10.366;2023-01-15T08:05:25;5.65;;;3.97;;
44476;SDS011;30180;44.788;10.366;2023-01-15T08:08:19;6.97;;;4.50;;
44476;SDS011;30180;44.788;10.366;2023-01-15T08:10:47;5.90;;;3.92;;
44476;SDS011;30180;44.788;10.366;2023-01-15T08:13:33;6.95;;;4.55;;
44476;SDS011;30180;44.788;10.366;2023-01-15T08:16:19;6.57;;;4.63;;
44476;SDS011;30180;44.788;10.366;2023-01-15T08:18:47;7.20;;;4.60;;
44476;SDS011;30180;44.788;10.366;2023-01-15T08:21:15;7.05;;;4.38;;
44476;SDS011;30180;44.788;10.366;2023-01-15T08:23:46;6.35;;;4.10;;
44476;SDS011;30180;44.788;10.366;2023-01-15T08:28:44;6.07;;;4.13;;
44476;SDS011;30180;44.788;10.366;2023-01-15T08:31:12;7.35;;;4.43;;
44476;SDS011;30180;44.788;10.366;2023-01-15T08:33:41;5.88;;;4.22;;
44476;SDS011;30180;44.788;10.366;2023-01-15T08:36:09;6.88;;;4.60;;
44476;SDS011;30180;44.788;10.366;2023-01-15T08:38:37;6.20;;;4.40;;
44476;SDS011;30180;44.788;10.366;2023-01-15T08:41:07;6.05;;;4.55;;
44476;SDS011;30180;44.788;10.366;2023-01-15T08:43:35;5.78;;;4.15;;
44476;SDS011;30180;44.788;10.366;2023-01-15T08:46:04;6.75;;;4.65;;
44476;SDS011;30180;44.788;10.366;2023-01-15T08:48:32;6.57;;;4.80;;
44476;SDS011;30180;44.788;10.366;2023-01-15T08:51:03;6.32;;;4.18;;
44476;SDS011;30180;44.788;10.366;2023-01-15T08:53:32;5.82;;;4.20;;
44476;SDS011;30180;44.788;10.366;2023-01-15T08:56:01;6.47;;;4.50;;
44476;SDS011;30180;44.788;10.366;2023-01-15T08:58:31;6.82;;;4.75;;
44476;SDS011;30180;44.788;10.366;2023-01-15T09:01:03;6.80;;;4.32;;
44476;SDS011;30180;44.788;10.366;2023-01-15T09:03:31;6.88;;;4.35;;
44476;SDS011;30180;44.788;10.366;2023-01-15T09:06:01;7.15;;;4.70;;
44476;SDS011;30180;44.788;10.366;2023-01-15T09:08:31;5.83;;;4.40;;
44476;SDS011;30180;44.788;10.366;2023-01-15T09:10:59;7.65;;;4.80;;
44476;SDS011;30180;44.788;10.366;2023-01-15T09:13:30;5.75;;;4.20;;
44476;SDS011;30180;44.788;10.366;2023-01-15T09:15:59;6.00;;;4.23;;
44476;SDS011;30180;44.788;10.366;2023-01-15T09:18:29;5.15;;;4.15;;
44476;SDS011;30180;44.788;10.366;2023-01-15T09:20:58;6.15;;;4.20;;
44476;SDS011;30180;44.788;10.366;2023-01-15T09:23:26;6.05;;;4.40;;
44476;SDS011;30180;44.788;10.366;2023-01-15T09:25:55;5.90;;;4.10;;
44476;SDS011;30180;44.788;10.366;2023-01-15T09:28:25;5.65;;;4.25;;
44476;SDS011;30180;44.788;10.366;2023-01-15T09:30:55;6.35;;;4.47;;
44476;SDS011;30180;44.788;10.366;2023-01-15T09:46:14;6.60;;;4.63;;
44476;SDS011;30180;44.788;10.366;2023-01-15T09:48:49;5.88;;;4.55;;
44476;SDS011;30180;44.788;10.366;2023-01-15T09:51:31;6.65;;;5.03;;
44476;SDS011;30180;44.788;10.366;2023-01-15T09:54:13;8.05;;;4.50;;
44476;SDS011;30180;44.788;10.366;2023-01-15T09:56:49;7.05;;;4.72;;
44476;SDS011;30180;44.788;10.366;2023-01-15T09:59:19;6.93;;;4.75;;
44476;SDS011;30180;44.788;10.366;2023-01-15T10:01:52;5.80;;;4.38;;
44476;SDS011;30180;44.788;10.366;2023-01-15T10:04:26;7.53;;;4.97;;
44476;SDS011;30180;44.788;10.366;2023-01-15T10:07:02;6.70;;;4.53;;
44476;SDS011;30180;44.788;10.366;2023-01-15T10:09:35;7.15;;;4.60;;
44476;SDS011;30180;44.788;10.366;2023-01-15T10:12:14;6.05;;;4.43;;
44476;SDS011;30180;44.788;10.366;2023-01-15T10:15:14;8.17;;;5.20;;
44476;SDS011;30180;44.788;10.366;2023-01-15T10:17:48;12.52;;;5.10;;
44476;SDS011;30180;44.788;10.366;2023-01-15T10:20:36;8.52;;;5.03;;
44476;SDS011;30180;44.788;10.366;2023-01-15T10:23:20;9.38;;;5.40;;
44476;SDS011;30180;44.788;10.366;2023-01-15T10:26:01;9.00;;;5.97;;
44476;SDS011;30180;44.788;10.366;2023-01-15T10:28:53;12.35;;;6.03;;
44476;SDS011;30180;44.788;10.366;2023-01-15T10:31:29;11.07;;;6.03;;
44476;SDS011;30180;44.788;10.366;2023-01-15T10:34:20;11.10;;;5.90;;
44476;SDS011;30180;44.788;10.366;2023-01-15T10:37:08;10.02;;;5.88;;
44476;SDS011;30180;44.788;10.366;2023-01-15T10:39:43;10.30;;;5.80;;
44476;SDS011;30180;44.788;10.366;2023-01-15T10:42:23;12.00;;;6.60;;
44476;SDS011;30180;44.788;10.366;2023-01-15T10:45:00;10.80;;;5.90;;
44476;SDS011;30180;44.788;10.366;2023-01-15T10:47:34;10.35;;;6.38;;
44476;SDS011;30180;44.788;10.366;2023-01-15T10:50:12;10.45;;;6.03;;
44476;SDS011;30180;44.788;10.366;2023-01-15T10:52:44;13.90;;;6.80;;
44476;SDS011;30180;44.788;10.366;2023-01-15T10:55:18;11.82;;;6.68;;
44476;SDS011;30180;44.788;10.366;2023-01-15T10:57:52;11.93;;;5.97;;
44476;SDS011;30180;44.788;10.366;2023-01-15T11:00:35;9.68;;;6.00;;
44476;SDS011;30180;44.788;10.366;2023-01-15T11:03:07;12.75;;;6.70;;
44476;SDS011;30180;44.788;10.366;2023-01-15T11:05:42;11.05;;;6.35;;
44476;SDS011;30180;44.788;10.366;2023-01-15T11:08:13;11.00;;;6.28;;
44476;SDS011;30180;44.788;10.366;2023-01-15T11:11:13;10.05;;;6.00;;
44476;SDS011;30180;44.788;10.366;2023-01-15T11:13:52;9.43;;;6.13;;
44476;SDS011;30180;44.788;10.366;2023-01-15T11:16:39;9.13;;;6.30;;
44476;SDS011;30180;44.788;10.366;2023-01-15T11:19:27;10.48;;;6.43;;
44476;SDS011;30180;44.788;10.366;2023-01-15T11:22:11;10.90;;;6.57;;
44476;SDS011;30180;44.788;10.366;2023-01-15T11:24:46;11.38;;;6.15;;
44476;SDS011;30180;44.788;10.366;2023-01-15T11:30:00;11.75;;;6.05;;
44476;SDS011;30180;44.788;10.366;2023-01-15T11:32:30;12.48;;;6.60;;
44476;SDS011;30180;44.788;10.366;2023-01-15T11:35:00;15.90;;;7.07;;
44476;SDS011;30180;44.788;10.366;2023-01-15T11:37:32;11.52;;;6.63;;
44476;SDS011;30180;44.788;10.366;2023-01-15T11:40:01;11.85;;;7.38;;
44476;SDS011;30180;44.788;10.366;2023-01-15T11:42:31;16.30;;;8.02;;
44476;SDS011;30180;44.788;10.366;2023-01-15T11:45:18;11.40;;;7.30;;
44476;SDS011;30180;44.788;10.366;2023-01-15T11:48:11;15.10;;;8.15;;
44476;SDS011;30180;44.788;10.366;2023-01-15T11:51:00;13.10;;;8.20;;
44476;SDS011;30180;44.788;10.366;2023-01-15T11:53:37;17.08;;;8.48;;
44476;SDS011;30180;44.788;10.366;2023-01-15T11:56:08;15.10;;;9.25;;
44476;SDS011;30180;44.788;10.366;2023-01-15T11:58:41;18.77;;;9.27;;
44476;SDS011;30180;44.788;10.366;2023-01-15T12:01:12;17.30;;;8.88;;
44476;SDS011;30180;44.788;10.366;2023-01-15T12:03:47;16.98;;;9.55;;
44476;SDS011;30180;44.788;10.366;2023-01-15T12:06:17;17.95;;;9.68;;
44476;SDS011;30180;44.788;10.366;2023-01-15T12:08:48;20.33;;;9.43;;
44476;SDS011;30180;44.788;10.366;2023-01-15T12:11:25;17.67;;;9.65;;
44476;SDS011;30180;44.788;10.366;2023-01-15T12:14:07;17.60;;;8.55;;
44476;SDS011;30180;44.788;10.366;2023-01-15T12:16:48;13.60;;;8.50;;
44476;SDS011;30180;44.788;10.366;2023-01-15T12:19:23;13.65;;;8.27;;
44476;SDS011;30180;44.788;10.366;2023-01-15T12:24:55;12.90;;;7.72;;
44476;SDS011;30180;44.788;10.366;2023-01-15T12:27:46;15.25;;;7.72;;
44476;SDS011;30180;44.788;10.366;2023-01-15T12:30:24;15.55;;;7.88;;
44476;SDS011;30180;44.788;10.366;2023-01-15T12:33:04;17.50;;;8.00;;
44476;SDS011;30180;44.788;10.366;2023-01-15T12:35:41;16.85;;;8.48;;
44476;SDS011;30180;44.788;10.366;2023-01-15T12:38:15;14.75;;;7.88;;
44476;SDS011;30180;44.788;10.366;2023-01-15T12:40:50;12.82;;;7.38;;
44476;SDS011;30180;44.788;10.366;2023-01-15T12:43:23;13.95;;;7.90;;
44476;SDS011;30180;44.788;10.366;2023-01-15T12:46:11;15.48;;;7.55;;
44476;SDS011;30180;44.788;10.366;2023-01-15T12:48:45;14.65;;;7.15;;
44476;SDS011;30180;44.788;10.366;2023-01-15T12:51:19;14.07;;;8.02;;
44476;SDS011;30180;44.788;10.366;2023-01-15T12:53:55;15.05;;;7.65;;
44476;SDS011;30180;44.788;10.366;2023-01-15T12:56:29;20.20;;;7.57;;
44476;SDS011;30180;44.788;10.366;2023-01-15T12:59:04;14.32;;;7.78;;
44476;SDS011;30180;44.788;10.366;2023-01-15T13:01:41;13.57;;;6.90;;
44476;SDS011;30180;44.788;10.366;2023-01-15T13:04:48;12.63;;;7.43;;
44476;SDS011;30180;44.788;10.366;2023-01-15T13:07:21;12.45;;;7.43;;
44476;SDS011;30180;44.788;10.366;2023-01-15T13:09:57;15.82;;;7.85;;
44476;SDS011;30180;44.788;10.366;2023-01-15T13:12:34;12.95;;;6.78;;
44476;SDS011;30180;44.788;10.366;2023-01-15T13:15:03;13.23;;;6.65;;
44476;SDS011;30180;44.788;10.366;2023-01-15T13:17:34;13.38;;;7.20;;
44476;SDS011;30180;44.788;10.366;2023-01-15T13:20:21;11.30;;;7.00;;
44476;SDS011;30180;44.788;10.366;2023-01-15T13:23:01;12.63;;;7.07;;
44476;SDS011;30180;44.788;10.366;2023-01-15T13:28:46;12.23;;;6.85;;
44476;SDS011;30180;44.788;10.366;2023-01-15T13:31:31;10.95;;;6.55;;
44476;SDS011;30180;44.788;10.366;2023-01-15T13:34:11;11.48;;;6.78;;
44476;SDS011;30180;44.788;10.366;2023-01-15T13:36:45;14.40;;;7.25;;
44476;SDS011;30180;44.788;10.366;2023-01-15T13:39:16;11.05;;;6.35;;
44476;SDS011;30180;44.788;10.366;2023-01-15T13:45:06;12.00;;;6.95;;
44476;SDS011;30180;44.788;10.366;2023-01-15T13:47:52;10.15;;;6.35;;
44476;SDS011;30180;44.788;10.366;2023-01-15T13:50:26;9.25;;;6.35;;
44476;SDS011;30180;44.788;10.366;2023-01-15T13:53:00;13.38;;;7.22;;
44476;SDS011;30180;44.788;10.366;2023-01-15T13:55:33;10.85;;;6.72;;
44476;SDS011;30180;44.788;10.366;2023-01-15T13:58:15;11.45;;;6.65;;
44476;SDS011;30180;44.788;10.366;2023-01-15T14:00:47;12.85;;;6.45;;
44476;SDS011;30180;44.788;10.366;2023-01-15T14:03:25;12.70;;;6.55;;
44476;SDS011;30180;44.788;10.366;2023-01-15T14:05:55;13.50;;;7.18;;
44476;SDS011;30180;44.788;10.366;2023-01-15T14:08:25;10.07;;;6.30;;
44476;SDS011;30180;44.788;10.366;2023-01-15T14:16:44;12.18;;;6.15;;
44476;SDS011;30180;44.788;10.366;2023-01-15T14:19:22;12.33;;;6.53;;
44476;SDS011;30180;44.788;10.366;2023-01-15T14:22:34;10.23;;;6.32;;
44476;SDS011;30180;44.788;10.366;2023-01-15T14:28:25;10.75;;;6.32;;
44476;SDS011;30180;44.788;10.366;2023-01-15T14:31:06;12.63;;;6.43;;
44476;SDS011;30180;44.788;10.366;2023-01-15T14:34:03;15.70;;;6.43;;
44476;SDS011;30180;44.788;10.366;2023-01-15T14:36:40;8.75;;;6.47;;
44476;SDS011;30180;44.788;10.366;2023-01-15T14:42:09;10.23;;;6.63;;
44476;SDS011;30180;44.788;10.366;2023-01-15T14:45:02;11.10;;;6.72;;
44476;SDS011;30180;44.788;10.366;2023-01-15T14:47:34;13.40;;;6.32;;
44476;SDS011;30180;44.788;10.366;2023-01-15T14:50:26;10.27;;;6.35;;
44476;SDS011;30180;44.788;10.366;2023-01-15T14:53:03;16.23;;;7.93;;
44476;SDS011;30180;44.788;10.366;2023-01-15T14:55:46;15.63;;;7.95;;
44476;SDS011;30180;44.788;10.366;2023-01-15T14:58:17;16.42;;;8.75;;
44476;SDS011;30180;44.788;10.366;2023-01-15T15:01:00;16.83;;;9.30;;
44476;SDS011;30180;44.788;10.366;2023-01-15T15:03:37;14.20;;;9.38;;
44476;SDS011;30180;44.788;10.366;2023-01-15T15:06:13;18.48;;;10.55;;
44476;SDS011;30180;44.788;10.366;2023-01-15T15:08:42;17.00;;;11.77;;
44476;SDS011;30180;44.788;10.366;2023-01-15T15:11:17;19.17;;;11.48;;
44476;SDS011;30180;44.788;10.366;2023-01-15T15:14:08;24.48;;;12.63;;
44476;SDS011;30180;44.788;10.366;2023-01-15T15:16:41;20.63;;;12.13;;
44476;SDS011;30180;44.788;10.366;2023-01-15T15:19:14;19.48;;;12.32;;
44476;SDS011;30180;44.788;10.366;2023-01-15T15:21:50;18.08;;;11.95;;
44476;SDS011;30180;44.788;10.366;2023-01-15T15:24:20;17.23;;;12.03;;
44476;SDS011;30180;44.788;10.366;2023-01-15T15:26:52;18.10;;;12.65;;
44476;SDS011;30180;44.788;10.366;2023-01-15T15:29:21;20.13;;;12.40;;
44476;SDS011;30180;44.788;10.366;2023-01-15T15:31:50;20.35;;;12.48;;
44476;SDS011;30180;44.788;10.366;2023-01-15T15:34:25;19.48;;;13.23;;
44476;SDS011;30180;44.788;10.366;2023-01-15T15:36:57;21.80;;;12.65;;
44476;SDS011;30180;44.788;10.366;2023-01-15T15:39:33;22.23;;;13.05;;
44476;SDS011;30180;44.788;10.366;2023-01-15T15:42:10;21.50;;;12.13;;
44476;SDS011;30180;44.788;10.366;2023-01-15T15:45:05;22.15;;;12.40;;
44476;SDS011;30180;44.788;10.366;2023-01-15T15:48:05;21.10;;;12.30;;
44476;SDS011;30180;44.788;10.366;2023-01-15T15:50:57;23.40;;;12.77;;
44476;SDS011;30180;44.788;10.366;2023-01-15T15:53:28;21.10;;;12.15;;
44476;SDS011;30180;44.788;10.366;2023-01-15T15:55:56;20.45;;;11.55;;